createdAt,value
2019-03-29T00:00:48.836Z,94.90
2019-03-29T00:03:18.369Z,94.90
2019-03-29T00:05:47.826Z,94.90
2019-03-29T00:08:17.278Z,95.20
2019-03-29T00:10:47.046Z,94.90
2019-03-29T00:13:16.774Z,95.00
2019-03-29T00:15:46.326Z,95.00
2019-03-29T00:18:15.757Z,95.10
2019-03-29T00:20:45.455Z,95.20
2019-03-29T00:23:14.888Z,95.30
2019-03-29T00:25:44.419Z,95.40
2019-03-29T00:28:13.891Z,95.50
2019-03-29T00:30:46.352Z,95.50
2019-03-29T00:33:15.908Z,95.50
2019-03-29T00:35:45.385Z,95.60
2019-03-29T00:38:14.979Z,95.70
2019-03-29T00:40:44.515Z,95.80
2019-03-29T00:43:13.983Z,95.90
2019-03-29T00:45:43.502Z,95.80
2019-03-29T00:48:13.069Z,95.80
2019-03-29T00:50:42.533Z,95.80
2019-03-29T00:53:12.007Z,95.80
2019-03-29T00:55:41.485Z,95.80
2019-03-29T00:58:11.028Z,95.90
2019-03-29T01:00:40.552Z,96.00
2019-03-29T01:03:10.872Z,96.00
2019-03-29T01:05:40.523Z,96.00
2019-03-29T01:08:11.004Z,96.00
2019-03-29T01:10:41.122Z,96.00
2019-03-29T01:13:10.586Z,96.00
2019-03-29T01:15:40.038Z,96.00
2019-03-29T01:18:09.528Z,96.00
2019-03-29T01:20:39.039Z,96.00
2019-03-29T01:23:08.633Z,96.10
2019-03-29T01:25:38.078Z,96.20
2019-03-29T01:28:07.616Z,96.30
2019-03-29T01:30:37.081Z,96.30
2019-03-29T01:33:06.537Z,96.30
2019-03-29T01:35:36.349Z,96.30
2019-03-29T01:38:05.803Z,96.30
2019-03-29T01:40:35.361Z,96.30
2019-03-29T01:43:04.896Z,96.40
2019-03-29T01:45:34.366Z,96.40
2019-03-29T01:48:03.886Z,96.40
2019-03-29T01:50:33.423Z,96.40
2019-03-29T01:53:02.874Z,96.40
2019-03-29T01:55:32.378Z,96.40
2019-03-29T01:58:02.035Z,96.40
2019-03-29T02:00:34.175Z,96.40
2019-03-29T02:03:04.017Z,96.50
2019-03-29T02:05:33.630Z,96.50
2019-03-29T02:08:03.233Z,96.60
2019-03-29T02:10:32.983Z,96.80
2019-03-29T02:13:02.468Z,96.90
2019-03-29T02:15:31.993Z,96.90
2019-03-29T02:18:01.616Z,97.00
2019-03-29T02:20:31.179Z,97.00
2019-03-29T02:23:00.653Z,97.00
2019-03-29T02:25:30.109Z,97.00
2019-03-29T02:27:59.619Z,97.10
2019-03-29T02:30:29.285Z,97.20
2019-03-29T02:32:58.758Z,97.20
2019-03-29T02:35:28.241Z,97.30
2019-03-29T02:37:57.702Z,97.30
2019-03-29T02:40:27.199Z,97.20
2019-03-29T02:42:56.749Z,97.20
2019-03-29T02:45:26.355Z,97.20
2019-03-29T02:47:55.791Z,97.20
2019-03-29T02:50:25.276Z,97.20
2019-03-29T02:52:54.559Z,97.10
2019-03-29T02:55:24.022Z,97.10
2019-03-29T02:57:53.514Z,97.20
2019-03-29T03:00:23.089Z,97.20
2019-03-29T03:02:52.546Z,97.20
2019-03-29T03:05:22.041Z,97.20
2019-03-29T03:07:51.581Z,97.20
2019-03-29T03:10:21.295Z,97.30
2019-03-29T03:12:50.768Z,97.30
2019-03-29T03:15:20.329Z,97.30
2019-03-29T03:17:49.911Z,97.30
2019-03-29T03:20:19.599Z,97.30
2019-03-29T03:22:49.027Z,97.30
2019-03-29T03:25:18.501Z,97.30
2019-03-29T03:27:47.973Z,97.40
2019-03-29T03:30:17.656Z,97.40
2019-03-29T03:32:47.212Z,97.50
2019-03-29T03:35:17.591Z,97.40
2019-03-29T03:37:47.141Z,97.40
2019-03-29T03:40:17.595Z,97.40
2019-03-29T03:42:47.250Z,97.50
2019-03-29T03:45:18.944Z,97.60
2019-03-29T03:47:48.065Z,97.70
2019-03-29T03:50:33.429Z,97.70
2019-03-29T03:53:03.028Z,97.70
2019-03-29T03:55:33.822Z,97.60
2019-03-29T03:58:04.961Z,97.80
2019-03-29T04:00:53.672Z,97.80
2019-03-29T04:03:24.247Z,97.70
2019-03-29T04:05:53.911Z,97.80
2019-03-29T04:08:23.597Z,97.70
2019-03-29T04:11:12.457Z,97.70
2019-03-29T04:13:41.939Z,97.70
2019-03-29T04:16:11.380Z,97.60
2019-03-29T04:18:40.852Z,97.60
2019-03-29T04:21:10.398Z,97.60
2019-03-29T04:23:39.852Z,97.50
2019-03-29T04:26:09.397Z,97.50
2019-03-29T04:28:38.851Z,97.50
2019-03-29T04:31:08.360Z,97.50
2019-03-29T04:33:37.868Z,97.60
2019-03-29T04:36:07.376Z,97.60
2019-03-29T04:38:36.873Z,97.60
2019-03-29T04:41:06.488Z,97.60
2019-03-29T04:43:35.939Z,97.70
2019-03-29T04:46:05.497Z,97.60
2019-03-29T04:48:34.965Z,97.60
2019-03-29T04:51:04.513Z,97.80
2019-03-29T04:53:33.977Z,97.70
2019-03-29T04:56:03.448Z,97.70
2019-03-29T04:58:33.037Z,97.70
2019-03-29T05:01:02.515Z,97.70
2019-03-29T05:03:32.045Z,97.80
2019-03-29T05:06:01.532Z,97.80
2019-03-29T05:08:31.031Z,97.80
2019-03-29T05:11:02.226Z,97.80
2019-03-29T05:13:31.810Z,97.80
2019-03-29T05:16:01.280Z,97.80
2019-03-29T05:18:30.739Z,97.80
2019-03-29T05:21:00.202Z,97.80
2019-03-29T05:23:29.671Z,97.80
2019-03-29T05:25:59.122Z,97.90
2019-03-29T05:28:28.656Z,98.00
2019-03-29T05:30:58.140Z,98.10
2019-03-29T05:33:27.591Z,98.10
2019-03-29T05:35:57.165Z,98.20
2019-03-29T05:38:26.651Z,98.20
2019-03-29T05:40:56.094Z,98.10
2019-03-29T05:43:25.594Z,98.20
2019-03-29T05:45:55.062Z,98.20
2019-03-29T05:48:24.519Z,98.30
2019-03-29T05:50:54.103Z,98.40
2019-03-29T05:53:23.577Z,98.40
2019-03-29T05:55:53.108Z,98.40
2019-03-29T05:58:22.653Z,98.40
2019-03-29T06:00:52.122Z,98.50
2019-03-29T06:03:21.665Z,98.60
2019-03-29T06:05:51.140Z,98.70
2019-03-29T06:08:20.601Z,98.70
2019-03-29T06:10:50.052Z,98.70
2019-03-29T06:13:19.538Z,98.70
2019-03-29T06:15:48.994Z,98.80
2019-03-29T06:18:18.456Z,98.90
2019-03-29T06:20:47.939Z,98.90
2019-03-29T06:23:17.381Z,99.10
2019-03-29T06:25:46.857Z,99.20
2019-03-29T06:28:16.340Z,99.30
2019-03-29T06:30:47.602Z,99.30
2019-03-29T06:33:17.093Z,99.40
2019-03-29T06:35:50.635Z,99.50
2019-03-29T06:38:24.095Z,99.60
2019-03-29T06:41:02.815Z,99.70
2019-03-29T06:43:24.858Z,99.80
2019-03-29T06:45:54.355Z,99.80
2019-03-29T06:48:23.849Z,99.80
2019-03-29T06:50:53.501Z,99.90
2019-03-29T06:53:23.155Z,99.80
2019-03-29T06:55:52.597Z,99.70
2019-03-29T06:58:22.173Z,99.60
2019-03-29T07:00:51.642Z,99.40
2019-03-29T07:03:21.611Z,99.30
2019-03-29T07:05:51.101Z,99.20
2019-03-29T07:08:20.549Z,98.90
2019-03-29T07:10:50.023Z,98.60
2019-03-29T07:13:19.487Z,98.40
2019-03-29T07:15:48.980Z,98.10
2019-03-29T07:18:18.534Z,97.80
2019-03-29T07:20:48.226Z,97.70
2019-03-29T07:23:17.673Z,97.30
2019-03-29T07:25:47.134Z,97.00
2019-03-29T07:28:16.644Z,96.90
2019-03-29T07:30:46.106Z,96.40
2019-03-29T07:33:15.639Z,96.40
2019-03-29T07:35:45.239Z,96.10
2019-03-29T07:38:14.732Z,96.10
2019-03-29T07:40:44.250Z,95.30
2019-03-29T07:43:13.763Z,95.30
2019-03-29T07:45:43.321Z,95.00
2019-03-29T07:48:12.887Z,94.60
2019-03-29T07:50:42.439Z,94.30
2019-03-29T07:53:11.919Z,94.20
2019-03-29T07:55:41.410Z,93.80
2019-03-29T07:58:10.924Z,93.30
2019-03-29T08:00:40.447Z,93.00
2019-03-29T08:03:09.884Z,92.80
2019-03-29T08:05:39.701Z,92.50
2019-03-29T08:08:22.846Z,92.30
2019-03-29T08:10:40.419Z,91.90
2019-03-29T08:13:09.889Z,91.70
2019-03-29T08:15:39.345Z,91.20
2019-03-29T08:18:08.888Z,91.00
2019-03-29T08:20:43.687Z,91.00
2019-03-29T08:23:09.794Z,90.60
2019-03-29T08:25:39.297Z,90.20
2019-03-29T08:28:08.879Z,90.00
2019-03-29T08:30:38.527Z,89.10
2019-03-29T08:33:08.134Z,89.00
2019-03-29T08:35:37.677Z,88.80
2019-03-29T08:38:07.213Z,88.20
2019-03-29T08:40:36.698Z,88.10
2019-03-29T08:43:06.163Z,88.00
2019-03-29T08:45:35.642Z,85.90
2019-03-29T08:48:06.851Z,86.60
2019-03-29T08:50:36.482Z,86.50
2019-03-29T08:53:05.971Z,86.60
2019-03-29T08:55:45.748Z,85.00
2019-03-29T08:58:06.780Z,83.10
2019-03-29T09:00:36.503Z,83.30
2019-03-29T09:03:06.158Z,83.10
2019-03-29T09:05:39.028Z,82.30
2019-03-29T09:08:06.938Z,82.10
2019-03-29T09:10:36.502Z,82.20
2019-03-29T09:13:06.009Z,82.50
2019-03-29T09:15:35.464Z,82.30
2019-03-29T09:18:05.020Z,82.50
2019-03-29T09:20:34.849Z,81.20
2019-03-29T09:23:04.381Z,81.40
2019-03-29T09:25:33.858Z,81.70
2019-03-29T09:28:03.361Z,81.40
2019-03-29T09:30:32.884Z,80.00
2019-03-29T09:33:02.363Z,79.40
2019-03-29T09:35:31.901Z,79.50
2019-03-29T09:38:01.364Z,77.20
2019-03-29T09:40:30.886Z,77.90
2019-03-29T09:43:08.403Z,77.10
2019-03-29T09:45:31.685Z,76.90
2019-03-29T09:48:01.149Z,77.00
2019-03-29T09:50:33.222Z,77.20
2019-03-29T09:53:02.707Z,75.40
2019-03-29T09:55:32.254Z,75.90
2019-03-29T09:58:01.990Z,75.30
2019-03-29T10:00:31.670Z,74.70
2019-03-29T10:03:01.248Z,74.00
2019-03-29T10:05:31.444Z,73.50
2019-03-29T10:08:01.260Z,73.10
2019-03-29T10:10:34.232Z,71.80
2019-03-29T10:13:02.086Z,71.00
2019-03-29T10:15:31.540Z,70.40
2019-03-29T10:18:00.999Z,68.90
2019-03-29T10:20:30.483Z,69.40
2019-03-29T10:22:59.989Z,69.10
2019-03-29T10:25:29.267Z,69.00
2019-03-29T10:27:58.738Z,68.90
2019-03-29T10:30:38.264Z,67.10
2019-03-29T10:33:07.960Z,67.80
2019-03-29T10:35:50.905Z,67.60
2019-03-29T10:38:09.191Z,66.50
2019-03-29T10:40:38.740Z,66.50
2019-03-29T10:43:08.365Z,65.30
2019-03-29T10:45:40.564Z,65.20
2019-03-29T10:48:09.610Z,65.60
2019-03-29T10:50:39.211Z,64.20
2019-03-29T10:53:08.704Z,64.60
2019-03-29T10:55:38.208Z,64.70
2019-03-29T10:58:09.640Z,64.00
2019-03-29T11:00:40.788Z,63.20
2019-03-29T11:03:10.690Z,62.90
2019-03-29T11:05:40.280Z,60.90
2019-03-29T11:08:11.981Z,60.90
2019-03-29T11:10:41.350Z,60.70
2019-03-29T11:13:13.862Z,60.10
2019-03-29T11:15:43.002Z,61.40
2019-03-29T11:18:12.509Z,58.80
2019-03-29T11:20:42.103Z,59.40
2019-03-29T11:23:11.649Z,58.50
2019-03-29T11:25:43.898Z,58.20
2019-03-29T11:28:13.381Z,58.60
2019-03-29T11:30:43.199Z,57.60
2019-03-29T11:33:12.870Z,57.30
2019-03-29T11:35:42.404Z,56.80
2019-03-29T11:38:12.013Z,55.80
2019-03-29T11:40:41.639Z,56.00
2019-03-29T11:43:11.223Z,56.10
2019-03-29T11:45:40.801Z,56.10
2019-03-29T11:48:10.356Z,54.80
2019-03-29T11:50:39.854Z,54.90
2019-03-29T11:53:09.427Z,54.50
2019-03-29T11:55:38.941Z,54.80
2019-03-29T11:58:08.581Z,55.50
2019-03-29T12:00:39.087Z,55.40
2019-03-29T12:03:09.337Z,55.60
2019-03-29T12:05:39.519Z,55.20
2019-03-29T12:08:09.143Z,55.40
2019-03-29T12:10:38.825Z,55.40
2019-03-29T12:13:09.855Z,55.40
2019-03-29T12:15:39.723Z,55.70
2019-03-29T12:18:09.382Z,56.20
2019-03-29T12:20:38.984Z,55.90
2019-03-29T12:23:08.634Z,56.10
2019-03-29T12:25:38.100Z,56.30
2019-03-29T12:28:07.795Z,55.70
2019-03-29T12:30:37.782Z,56.70
2019-03-29T12:33:07.309Z,56.60
2019-03-29T12:35:40.055Z,56.20
2019-03-29T12:38:09.789Z,55.50
2019-03-29T12:40:39.275Z,55.50
2019-03-29T12:43:12.279Z,55.20
2019-03-29T12:45:40.125Z,55.80
2019-03-29T12:48:09.724Z,55.80
2019-03-29T12:50:39.289Z,55.60
2019-03-29T12:53:08.780Z,55.40
2019-03-29T12:55:38.265Z,55.70
2019-03-29T12:58:07.991Z,55.70
2019-03-29T13:00:37.846Z,56.00
2019-03-29T13:03:07.564Z,55.70
2019-03-29T13:05:37.066Z,55.50
2019-03-29T13:08:06.553Z,54.80
2019-03-29T13:10:36.181Z,55.00
2019-03-29T13:13:05.801Z,55.00
2019-03-29T13:15:35.488Z,55.40
2019-03-29T13:18:05.192Z,55.20
2019-03-29T13:20:34.740Z,54.90
2019-03-29T13:23:04.398Z,55.10
2019-03-29T13:25:34.049Z,54.40
2019-03-29T13:28:03.640Z,54.50
2019-03-29T13:30:33.216Z,54.20
2019-03-29T13:33:02.719Z,54.20
2019-03-29T13:35:32.266Z,54.50
2019-03-29T13:38:01.863Z,54.70
2019-03-29T13:40:31.424Z,55.00
2019-03-29T13:43:01.053Z,54.20
2019-03-29T13:45:30.780Z,54.60
2019-03-29T13:48:00.361Z,55.00
2019-03-29T13:50:30.077Z,53.90
2019-03-29T13:52:59.681Z,53.90
2019-03-29T13:55:29.191Z,54.10
2019-03-29T13:57:58.752Z,54.10
2019-03-29T14:00:30.629Z,53.80
2019-03-29T14:03:00.211Z,53.70
2019-03-29T14:05:29.701Z,53.50
2019-03-29T14:07:59.143Z,53.70
2019-03-29T14:10:28.698Z,53.40
2019-03-29T14:12:58.273Z,53.90
2019-03-29T14:15:27.726Z,53.50
2019-03-29T14:17:57.240Z,53.60
2019-03-29T14:20:34.253Z,54.00
2019-03-29T14:23:05.065Z,54.00
2019-03-29T14:25:35.177Z,53.90
2019-03-29T14:28:05.163Z,54.10
2019-03-29T14:30:34.733Z,54.00
2019-03-29T14:33:04.319Z,53.60
2019-03-29T14:35:33.895Z,53.90
2019-03-29T14:38:03.535Z,53.80
2019-03-29T14:40:33.009Z,53.60
2019-03-29T14:43:02.593Z,53.80
2019-03-29T14:45:32.309Z,53.70
2019-03-29T14:48:01.925Z,53.60
2019-03-29T14:50:31.971Z,53.60
2019-03-29T14:53:01.554Z,54.10
2019-03-29T14:55:31.004Z,54.40
2019-03-29T14:58:00.578Z,54.50
2019-03-29T15:00:42.288Z,55.00
2019-03-29T15:03:12.343Z,54.90
2019-03-29T15:05:42.376Z,54.60
2019-03-29T15:08:12.150Z,54.50
2019-03-29T15:10:41.742Z,54.40
2019-03-29T15:13:11.323Z,54.40
2019-03-29T15:15:40.828Z,54.30
2019-03-29T15:18:10.694Z,54.50
2019-03-29T15:20:52.571Z,54.20
2019-03-29T15:23:11.533Z,54.40
2019-03-29T15:25:41.144Z,54.40
2019-03-29T15:28:13.131Z,54.00
2019-03-29T15:30:42.657Z,53.50
2019-03-29T15:33:12.413Z,53.50
2019-03-29T15:35:41.987Z,53.60
2019-03-29T15:38:11.527Z,54.00
2019-03-29T15:40:41.158Z,54.00
2019-03-29T15:43:11.021Z,54.10
2019-03-29T15:45:40.481Z,54.30
2019-03-29T15:48:10.069Z,54.30
2019-03-29T15:50:39.545Z,54.30
2019-03-29T15:53:09.159Z,54.40
2019-03-29T15:55:39.055Z,54.30
2019-03-29T15:58:08.622Z,54.20
2019-03-29T16:00:38.447Z,54.30
2019-03-29T16:03:07.943Z,54.30
2019-03-29T16:05:37.643Z,54.50
2019-03-29T16:08:07.463Z,54.80
2019-03-29T16:10:37.243Z,54.70
2019-03-29T16:13:06.954Z,54.80
2019-03-29T16:15:38.330Z,54.80
2019-03-29T16:18:07.663Z,54.70
2019-03-29T16:20:37.200Z,54.70
2019-03-29T16:23:06.765Z,54.80
2019-03-29T16:25:36.280Z,55.00
2019-03-29T16:28:05.953Z,55.10
2019-03-29T16:30:35.528Z,55.10
2019-03-29T16:33:05.195Z,55.40
2019-03-29T16:35:34.711Z,55.50
2019-03-29T16:38:04.323Z,55.60
2019-03-29T16:40:34.137Z,55.80
2019-03-29T16:43:03.910Z,56.00
2019-03-29T16:45:46.868Z,56.20
2019-03-29T16:48:06.760Z,56.40
2019-03-29T16:50:36.620Z,56.30
2019-03-29T16:53:06.286Z,56.40
2019-03-29T16:55:35.894Z,56.40
2019-03-29T16:58:05.613Z,56.50
2019-03-29T17:00:35.252Z,56.60
2019-03-29T17:03:04.941Z,56.50
2019-03-29T17:05:34.514Z,56.60
2019-03-29T17:08:05.536Z,56.80
2019-03-29T17:10:35.233Z,57.00
2019-03-29T17:13:04.898Z,57.20
2019-03-29T17:15:34.263Z,57.50
2019-03-29T17:18:03.774Z,57.60
2019-03-29T17:20:33.377Z,58.00
2019-03-29T17:23:02.749Z,58.10
2019-03-29T17:25:32.300Z,58.30
2019-03-29T17:28:01.895Z,58.60
2019-03-29T17:30:41.856Z,58.60
2019-03-29T17:33:11.373Z,58.80
2019-03-29T17:35:40.985Z,59.00
2019-03-29T17:38:10.614Z,59.00
2019-03-29T17:40:40.142Z,59.10
2019-03-29T17:43:09.617Z,59.30
2019-03-29T17:45:39.242Z,59.40
2019-03-29T17:48:08.869Z,59.60
2019-03-29T17:50:38.449Z,59.90
2019-03-29T17:53:07.996Z,60.10
2019-03-29T17:55:37.515Z,60.30
2019-03-29T17:58:07.020Z,60.40
2019-03-29T18:00:36.701Z,60.70
2019-03-29T18:03:06.343Z,61.00
2019-03-29T18:05:35.937Z,61.30
2019-03-29T18:08:05.698Z,61.50
2019-03-29T18:10:35.284Z,61.90
2019-03-29T18:13:04.985Z,62.30
2019-03-29T18:15:34.513Z,62.70
2019-03-29T18:18:04.197Z,63.00
2019-03-29T18:20:33.704Z,63.60
2019-03-29T18:23:03.290Z,64.00
2019-03-29T18:25:32.879Z,64.60
2019-03-29T18:28:02.471Z,65.00
2019-03-29T18:30:41.234Z,65.20
2019-03-29T18:33:10.886Z,65.30
2019-03-29T18:35:40.612Z,65.60
2019-03-29T18:38:10.223Z,65.90
2019-03-29T18:40:39.759Z,66.90
2019-03-29T18:43:09.478Z,67.60
2019-03-29T18:45:41.606Z,67.90
2019-03-29T18:48:10.262Z,68.30
2019-03-29T18:50:39.703Z,69.00
2019-03-29T18:53:09.228Z,69.80
2019-03-29T18:55:38.732Z,70.30
2019-03-29T18:58:08.189Z,70.80
2019-03-29T19:00:37.755Z,71.40
2019-03-29T19:03:07.345Z,72.20
2019-03-29T19:05:36.879Z,72.80
2019-03-29T19:08:06.378Z,73.40
2019-03-29T19:10:36.073Z,74.10
2019-03-29T19:13:05.573Z,74.40
2019-03-29T19:15:35.097Z,74.80
2019-03-29T19:18:04.739Z,75.10
2019-03-29T19:20:34.100Z,75.40
2019-03-29T19:23:03.769Z,76.00
2019-03-29T19:25:33.314Z,76.40
2019-03-29T19:28:02.775Z,76.30
2019-03-29T19:30:32.293Z,76.80
2019-03-29T19:33:01.772Z,77.30
2019-03-29T19:35:31.236Z,77.70
2019-03-29T19:38:00.848Z,78.20
2019-03-29T19:40:30.317Z,79.10
2019-03-29T19:42:59.791Z,79.70
2019-03-29T19:45:29.364Z,79.90
2019-03-29T19:47:58.875Z,79.80
2019-03-29T19:50:28.474Z,79.90
2019-03-29T19:52:58.105Z,80.60
2019-03-29T19:55:27.673Z,81.70
2019-03-29T19:57:57.215Z,81.40
2019-03-29T20:00:38.326Z,81.90
2019-03-29T20:03:08.026Z,82.90
2019-03-29T20:05:37.649Z,84.20
2019-03-29T20:08:07.247Z,84.50
2019-03-29T20:10:36.721Z,84.70
2019-03-29T20:13:06.285Z,84.80
2019-03-29T20:15:35.924Z,85.30
2019-03-29T20:18:05.543Z,84.50
2019-03-29T20:20:34.990Z,85.20
2019-03-29T20:23:04.939Z,85.40
2019-03-29T20:25:34.455Z,85.40
2019-03-29T20:28:04.177Z,86.60
2019-03-29T20:30:33.848Z,86.60
2019-03-29T20:33:03.388Z,86.70
2019-03-29T20:35:32.956Z,87.50
2019-03-29T20:38:02.583Z,87.70
2019-03-29T20:40:32.416Z,87.70
2019-03-29T20:43:01.936Z,88.00
2019-03-29T20:45:31.491Z,88.30
2019-03-29T20:48:00.967Z,88.60
2019-03-29T20:50:30.480Z,89.10
2019-03-29T20:52:59.950Z,89.50
2019-03-29T20:55:29.439Z,89.90
2019-03-29T20:57:58.987Z,90.00
2019-03-29T21:00:28.523Z,89.90
2019-03-29T21:02:57.983Z,90.00
2019-03-29T21:05:27.483Z,90.30
2019-03-29T21:07:57.861Z,90.50
2019-03-29T21:10:27.385Z,90.40
2019-03-29T21:12:56.940Z,90.50
2019-03-29T21:15:26.395Z,90.70
2019-03-29T21:17:58.428Z,90.60
2019-03-29T21:20:27.866Z,90.60
2019-03-29T21:22:57.572Z,90.70
2019-03-29T21:25:27.058Z,90.60
2019-03-29T21:27:56.530Z,90.60
2019-03-29T21:30:26.077Z,91.10
2019-03-29T21:32:55.567Z,90.90
2019-03-29T21:35:25.109Z,90.90
2019-03-29T21:37:54.701Z,91.10
2019-03-29T21:40:24.215Z,91.20
2019-03-29T21:42:53.732Z,91.10
2019-03-29T21:45:28.930Z,91.10
2019-03-29T21:48:04.654Z,91.20
2019-03-29T21:50:25.742Z,91.40
2019-03-29T21:52:55.259Z,91.50
2019-03-29T21:55:24.836Z,91.50
2019-03-29T21:57:54.430Z,91.50
2019-03-29T22:00:23.903Z,91.50
2019-03-29T22:02:53.446Z,91.70
2019-03-29T22:05:22.917Z,91.90
2019-03-29T22:07:52.454Z,92.10
2019-03-29T22:10:21.920Z,92.30
2019-03-29T22:12:51.482Z,92.60
2019-03-29T22:15:21.047Z,92.80
2019-03-29T22:17:50.537Z,92.80
2019-03-29T22:20:20.046Z,92.70
2019-03-29T22:22:49.613Z,92.70
2019-03-29T22:25:19.176Z,92.70
2019-03-29T22:27:48.685Z,93.10
2019-03-29T22:30:18.310Z,93.00
2019-03-29T22:32:47.794Z,93.10
2019-03-29T22:35:17.335Z,93.40
2019-03-29T22:37:47.257Z,93.20
2019-03-29T22:40:16.882Z,93.10
2019-03-29T22:42:46.386Z,93.00
2019-03-29T22:45:17.541Z,93.00
2019-03-29T22:47:47.193Z,93.00
2019-03-29T22:50:16.922Z,93.10
2019-03-29T22:52:46.401Z,93.10
2019-03-29T22:55:16.010Z,93.20
2019-03-29T22:57:45.476Z,93.30
2019-03-29T23:00:33.191Z,93.40
2019-03-29T23:03:07.081Z,93.40
2019-03-29T23:05:37.182Z,93.40
2019-03-29T23:08:06.858Z,93.60
2019-03-29T23:10:36.458Z,93.60
2019-03-29T23:13:06.002Z,93.70
2019-03-29T23:15:35.627Z,93.70
2019-03-29T23:18:05.215Z,93.80
2019-03-29T23:20:34.674Z,93.80
2019-03-29T23:23:04.243Z,93.90
2019-03-29T23:25:33.544Z,94.00
2019-03-29T23:28:03.009Z,94.00
2019-03-29T23:30:32.623Z,94.10
2019-03-29T23:33:02.215Z,94.20
2019-03-29T23:35:31.807Z,94.20
2019-03-29T23:38:01.388Z,94.20
2019-03-29T23:40:31.050Z,94.30
2019-03-29T23:43:00.594Z,94.40
2019-03-29T23:45:30.203Z,94.30
2019-03-29T23:47:59.788Z,94.50
2019-03-29T23:50:29.248Z,94.50
2019-03-29T23:52:58.718Z,94.40
2019-03-29T23:55:28.266Z,94.50
2019-03-29T23:57:57.727Z,94.70
